sensor_id;sensor_type;location;lat;lon;timestamp;P1;durP1;ratioP1;P2;durP2;ratioP2
20743;SDS011;56303;52.160;-0.428;2023-05-07T00:01:06;12.10;;;10.00;;
20743;SDS011;56303;52.160;-0.428;2023-05-07T00:03:33;15.00;;;11.60;;
20743;SDS011;56303;52.160;-0.428;2023-05-07T00:06:00;14.67;;;9.73;;
20743;SDS011;56303;52.160;-0.428;2023-05-07T00:08:27;15.13;;;10.37;;
20743;SDS011;56303;52.160;-0.428;2023-05-07T00:10:53;12.50;;;10.80;;
20743;SDS011;56303;52.160;-0.428;2023-05-07T00:13:20;15.70;;;11.23;;
20743;SDS011;56303;52.160;-0.428;2023-05-07T00:15:47;14.03;;;11.17;;
20743;SDS011;56303;52.160;-0.428;2023-05-07T00:18:14;13.70;;;10.57;;
20743;SDS011;56303;52.160;-0.428;2023-05-07T00:20:42;12.37;;;10.83;;
20743;SDS011;56303;52.160;-0.428;2023-05-07T00:23:09;12.33;;;10.93;;
20743;SDS011;56303;52.160;-0.428;2023-05-07T00:25:36;11.73;;;9.60;;
20743;SDS011;56303;52.160;-0.428;2023-05-07T00:28:03;12.60;;;9.67;;
20743;SDS011;56303;52.160;-0.428;2023-05-07T00:30:30;16.30;;;10.90;;
20743;SDS011;56303;52.160;-0.428;2023-05-07T00:32:56;14.73;;;10.40;;
20743;SDS011;56303;52.160;-0.428;2023-05-07T00:35:23;13.97;;;10.70;;
20743;SDS011;56303;52.160;-0.428;2023-05-07T00:37:50;13.23;;;10.17;;
20743;SDS011;56303;52.160;-0.428;2023-05-07T00:40:17;14.43;;;9.53;;
20743;SDS011;56303;52.160;-0.428;2023-05-07T00:42:44;14.13;;;11.50;;
20743;SDS011;56303;52.160;-0.428;2023-05-07T00:45:13;16.10;;;10.73;;
20743;SDS011;56303;52.160;-0.428;2023-05-07T00:47:41;14.00;;;11.47;;
20743;SDS011;56303;52.160;-0.428;2023-05-07T00:50:08;15.37;;;10.90;;
20743;SDS011;56303;52.160;-0.428;2023-05-07T00:52:39;15.83;;;11.97;;
20743;SDS011;56303;52.160;-0.428;2023-05-07T00:55:06;17.77;;;11.27;;
20743;SDS011;56303;52.160;-0.428;2023-05-07T00:57:36;15.03;;;12.17;;
20743;SDS011;56303;52.160;-0.428;2023-05-07T01:00:06;13.13;;;9.53;;
20743;SDS011;56303;52.160;-0.428;2023-05-07T01:02:35;12.97;;;10.27;;
20743;SDS011;56303;52.160;-0.428;2023-05-07T01:05:02;11.20;;;9.83;;
20743;SDS011;56303;52.160;-0.428;2023-05-07T01:07:32;11.53;;;10.00;;
20743;SDS011;56303;52.160;-0.428;2023-05-07T01:10:01;12.10;;;10.77;;
20743;SDS011;56303;52.160;-0.428;2023-05-07T01:12:29;13.53;;;10.80;;
20743;SDS011;56303;52.160;-0.428;2023-05-07T01:14:57;11.30;;;10.13;;
20743;SDS011;56303;52.160;-0.428;2023-05-07T01:17:24;14.63;;;10.87;;
20743;SDS011;56303;52.160;-0.428;2023-05-07T01:19:51;17.57;;;12.00;;
20743;SDS011;56303;52.160;-0.428;2023-05-07T01:22:29;14.17;;;11.43;;
20743;SDS011;56303;52.160;-0.428;2023-05-07T01:24:58;15.80;;;11.90;;
20743;SDS011;56303;52.160;-0.428;2023-05-07T01:27:27;12.53;;;11.20;;
20743;SDS011;56303;52.160;-0.428;2023-05-07T01:29:55;16.87;;;14.10;;
20743;SDS011;56303;52.160;-0.428;2023-05-07T01:32:44;16.63;;;12.50;;
20743;SDS011;56303;52.160;-0.428;2023-05-07T01:35:10;18.73;;;11.77;;
20743;SDS011;56303;52.160;-0.428;2023-05-07T01:37:38;14.67;;;12.17;;
20743;SDS011;56303;52.160;-0.428;2023-05-07T01:40:06;13.83;;;12.30;;
20743;SDS011;56303;52.160;-0.428;2023-05-07T01:42:34;15.07;;;12.57;;
20743;SDS011;56303;52.160;-0.428;2023-05-07T01:45:02;18.20;;;13.47;;
20743;SDS011;56303;52.160;-0.428;2023-05-07T01:47:29;15.63;;;13.40;;
20743;SDS011;56303;52.160;-0.428;2023-05-07T01:49:57;15.40;;;13.27;;
20743;SDS011;56303;52.160;-0.428;2023-05-07T01:52:24;17.10;;;13.63;;
20743;SDS011;56303;52.160;-0.428;2023-05-07T01:54:51;18.83;;;14.57;;
20743;SDS011;56303;52.160;-0.428;2023-05-07T01:57:18;15.50;;;13.20;;
20743;SDS011;56303;52.160;-0.428;2023-05-07T01:59:45;16.37;;;13.93;;
20743;SDS011;56303;52.160;-0.428;2023-05-07T02:02:12;18.47;;;14.80;;
20743;SDS011;56303;52.160;-0.428;2023-05-07T02:04:39;18.00;;;14.57;;
20743;SDS011;56303;52.160;-0.428;2023-05-07T02:07:05;18.57;;;15.13;;
20743;SDS011;56303;52.160;-0.428;2023-05-07T02:09:32;16.53;;;13.87;;
20743;SDS011;56303;52.160;-0.428;2023-05-07T02:11:59;16.60;;;13.13;;
20743;SDS011;56303;52.160;-0.428;2023-05-07T02:14:26;14.90;;;13.13;;
20743;SDS011;56303;52.160;-0.428;2023-05-07T02:16:53;16.87;;;14.03;;
20743;SDS011;56303;52.160;-0.428;2023-05-07T02:19:20;17.00;;;13.83;;
20743;SDS011;56303;52.160;-0.428;2023-05-07T02:21:47;17.13;;;14.57;;
20743;SDS011;56303;52.160;-0.428;2023-05-07T02:24:14;17.60;;;14.17;;
20743;SDS011;56303;52.160;-0.428;2023-05-07T02:26:41;17.53;;;13.67;;
20743;SDS011;56303;52.160;-0.428;2023-05-07T02:29:08;17.23;;;13.77;;
20743;SDS011;56303;52.160;-0.428;2023-05-07T02:31:34;17.87;;;15.87;;
20743;SDS011;56303;52.160;-0.428;2023-05-07T02:34:01;17.43;;;14.73;;
20743;SDS011;56303;52.160;-0.428;2023-05-07T02:36:28;19.80;;;15.53;;
20743;SDS011;56303;52.160;-0.428;2023-05-07T02:38:55;20.97;;;15.60;;
20743;SDS011;56303;52.160;-0.428;2023-05-07T02:41:22;18.80;;;15.37;;
20743;SDS011;56303;52.160;-0.428;2023-05-07T02:43:48;19.07;;;15.60;;
20743;SDS011;56303;52.160;-0.428;2023-05-07T02:46:15;19.93;;;16.13;;
20743;SDS011;56303;52.160;-0.428;2023-05-07T02:48:42;19.60;;;15.43;;
20743;SDS011;56303;52.160;-0.428;2023-05-07T02:51:09;21.87;;;16.63;;
20743;SDS011;56303;52.160;-0.428;2023-05-07T02:53:36;22.13;;;17.43;;
20743;SDS011;56303;52.160;-0.428;2023-05-07T02:56:03;22.33;;;17.17;;
20743;SDS011;56303;52.160;-0.428;2023-05-07T02:58:31;20.60;;;17.07;;
20743;SDS011;56303;52.160;-0.428;2023-05-07T03:00:58;22.60;;;16.77;;
20743;SDS011;56303;52.160;-0.428;2023-05-07T03:03:26;19.30;;;15.53;;
20743;SDS011;56303;52.160;-0.428;2023-05-07T03:05:52;25.80;;;17.80;;
20743;SDS011;56303;52.160;-0.428;2023-05-07T03:08:19;25.20;;;16.73;;
20743;SDS011;56303;52.160;-0.428;2023-05-07T03:10:46;22.10;;;16.57;;
20743;SDS011;56303;52.160;-0.428;2023-05-07T03:13:13;21.13;;;16.20;;
20743;SDS011;56303;52.160;-0.428;2023-05-07T03:15:40;22.50;;;16.27;;
20743;SDS011;56303;52.160;-0.428;2023-05-07T03:18:07;23.97;;;17.87;;
20743;SDS011;56303;52.160;-0.428;2023-05-07T03:20:34;18.23;;;16.07;;
20743;SDS011;56303;52.160;-0.428;2023-05-07T03:23:04;22.00;;;17.50;;
20743;SDS011;56303;52.160;-0.428;2023-05-07T03:25:31;21.67;;;16.23;;
20743;SDS011;56303;52.160;-0.428;2023-05-07T03:27:58;21.03;;;17.07;;
20743;SDS011;56303;52.160;-0.428;2023-05-07T03:30:25;19.23;;;15.30;;
20743;SDS011;56303;52.160;-0.428;2023-05-07T03:32:52;20.33;;;15.87;;
20743;SDS011;56303;52.160;-0.428;2023-05-07T03:35:19;19.83;;;15.30;;
20743;SDS011;56303;52.160;-0.428;2023-05-07T03:37:46;19.63;;;14.77;;
20743;SDS011;56303;52.160;-0.428;2023-05-07T03:40:13;20.73;;;15.83;;
20743;SDS011;56303;52.160;-0.428;2023-05-07T03:42:40;21.63;;;15.37;;
20743;SDS011;56303;52.160;-0.428;2023-05-07T03:45:07;21.47;;;15.47;;
20743;SDS011;56303;52.160;-0.428;2023-05-07T03:47:34;19.53;;;15.07;;
20743;SDS011;56303;52.160;-0.428;2023-05-07T03:50:01;22.30;;;16.60;;
20743;SDS011;56303;52.160;-0.428;2023-05-07T03:52:28;19.80;;;14.80;;
20743;SDS011;56303;52.160;-0.428;2023-05-07T03:54:55;20.37;;;14.43;;
20743;SDS011;56303;52.160;-0.428;2023-05-07T03:57:21;22.30;;;16.93;;
20743;SDS011;56303;52.160;-0.428;2023-05-07T03:59:48;21.70;;;16.63;;
20743;SDS011;56303;52.160;-0.428;2023-05-07T04:02:15;22.70;;;17.17;;
20743;SDS011;56303;52.160;-0.428;2023-05-07T04:04:42;26.13;;;18.23;;
20743;SDS011;56303;52.160;-0.428;2023-05-07T04:07:09;21.50;;;16.10;;
20743;SDS011;56303;52.160;-0.428;2023-05-07T04:09:36;23.40;;;17.10;;
20743;SDS011;56303;52.160;-0.428;2023-05-07T04:12:02;22.37;;;16.07;;
20743;SDS011;56303;52.160;-0.428;2023-05-07T04:14:29;19.10;;;15.40;;
20743;SDS011;56303;52.160;-0.428;2023-05-07T04:16:58;22.73;;;15.63;;
20743;SDS011;56303;52.160;-0.428;2023-05-07T04:19:25;22.70;;;17.43;;
20743;SDS011;56303;52.160;-0.428;2023-05-07T04:21:52;22.40;;;16.77;;
20743;SDS011;56303;52.160;-0.428;2023-05-07T04:24:19;22.27;;;16.43;;
20743;SDS011;56303;52.160;-0.428;2023-05-07T04:26:46;21.20;;;17.03;;
20743;SDS011;56303;52.160;-0.428;2023-05-07T04:29:13;24.03;;;17.47;;
20743;SDS011;56303;52.160;-0.428;2023-05-07T04:31:40;20.63;;;16.67;;
20743;SDS011;56303;52.160;-0.428;2023-05-07T04:34:10;28.27;;;20.33;;
20743;SDS011;56303;52.160;-0.428;2023-05-07T04:36:38;22.50;;;17.50;;
20743;SDS011;56303;52.160;-0.428;2023-05-07T04:39:05;25.10;;;18.47;;
20743;SDS011;56303;52.160;-0.428;2023-05-07T04:41:33;29.77;;;19.73;;
20743;SDS011;56303;52.160;-0.428;2023-05-07T04:44:02;28.03;;;19.10;;
20743;SDS011;56303;52.160;-0.428;2023-05-07T04:46:30;21.50;;;16.53;;
20743;SDS011;56303;52.160;-0.428;2023-05-07T04:48:57;25.53;;;19.63;;
20743;SDS011;56303;52.160;-0.428;2023-05-07T04:51:24;22.63;;;18.90;;
20743;SDS011;56303;52.160;-0.428;2023-05-07T04:53:51;26.80;;;19.00;;
20743;SDS011;56303;52.160;-0.428;2023-05-07T04:56:18;23.47;;;19.07;;
20743;SDS011;56303;52.160;-0.428;2023-05-07T04:58:45;30.50;;;19.77;;
20743;SDS011;56303;52.160;-0.428;2023-05-07T05:01:12;23.03;;;17.90;;
20743;SDS011;56303;52.160;-0.428;2023-05-07T05:03:39;25.80;;;18.80;;
20743;SDS011;56303;52.160;-0.428;2023-05-07T05:06:05;27.97;;;20.10;;
20743;SDS011;56303;52.160;-0.428;2023-05-07T05:08:32;25.53;;;19.60;;
20743;SDS011;56303;52.160;-0.428;2023-05-07T05:11:00;28.67;;;19.40;;
20743;SDS011;56303;52.160;-0.428;2023-05-07T05:13:28;27.23;;;19.30;;
20743;SDS011;56303;52.160;-0.428;2023-05-07T05:15:55;24.23;;;19.10;;
20743;SDS011;56303;52.160;-0.428;2023-05-07T05:18:22;26.17;;;19.03;;
20743;SDS011;56303;52.160;-0.428;2023-05-07T05:20:49;28.47;;;20.87;;
20743;SDS011;56303;52.160;-0.428;2023-05-07T05:23:18;26.37;;;19.83;;
20743;SDS011;56303;52.160;-0.428;2023-05-07T05:25:46;28.37;;;20.27;;
20743;SDS011;56303;52.160;-0.428;2023-05-07T05:28:12;28.63;;;20.93;;
20743;SDS011;56303;52.160;-0.428;2023-05-07T05:30:39;26.90;;;19.63;;
20743;SDS011;56303;52.160;-0.428;2023-05-07T05:33:06;26.37;;;19.67;;
20743;SDS011;56303;52.160;-0.428;2023-05-07T05:35:33;25.90;;;20.93;;
20743;SDS011;56303;52.160;-0.428;2023-05-07T05:38:02;23.07;;;17.93;;
20743;SDS011;56303;52.160;-0.428;2023-05-07T05:40:29;29.77;;;19.97;;
20743;SDS011;56303;52.160;-0.428;2023-05-07T05:42:56;23.97;;;18.93;;
20743;SDS011;56303;52.160;-0.428;2023-05-07T05:45:23;27.80;;;20.00;;
20743;SDS011;56303;52.160;-0.428;2023-05-07T05:47:50;26.40;;;19.13;;
20743;SDS011;56303;52.160;-0.428;2023-05-07T05:50:17;22.87;;;18.40;;
20743;SDS011;56303;52.160;-0.428;2023-05-07T05:52:43;24.70;;;19.53;;
20743;SDS011;56303;52.160;-0.428;2023-05-07T05:55:10;23.20;;;18.57;;
20743;SDS011;56303;52.160;-0.428;2023-05-07T05:57:37;24.37;;;18.73;;
20743;SDS011;56303;52.160;-0.428;2023-05-07T06:00:04;26.13;;;20.07;;
20743;SDS011;56303;52.160;-0.428;2023-05-07T06:02:32;21.43;;;18.03;;
20743;SDS011;56303;52.160;-0.428;2023-05-07T06:04:59;27.63;;;20.23;;
20743;SDS011;56303;52.160;-0.428;2023-05-07T06:07:26;24.33;;;19.40;;
20743;SDS011;56303;52.160;-0.428;2023-05-07T06:09:53;24.93;;;19.50;;
20743;SDS011;56303;52.160;-0.428;2023-05-07T06:12:20;20.63;;;17.60;;
20743;SDS011;56303;52.160;-0.428;2023-05-07T06:14:47;22.53;;;17.70;;
20743;SDS011;56303;52.160;-0.428;2023-05-07T06:17:14;22.33;;;18.23;;
20743;SDS011;56303;52.160;-0.428;2023-05-07T06:19:41;25.53;;;18.33;;
20743;SDS011;56303;52.160;-0.428;2023-05-07T06:22:08;21.53;;;18.37;;
20743;SDS011;56303;52.160;-0.428;2023-05-07T06:24:35;25.07;;;18.67;;
20743;SDS011;56303;52.160;-0.428;2023-05-07T06:27:02;24.93;;;19.47;;
20743;SDS011;56303;52.160;-0.428;2023-05-07T06:29:29;24.97;;;18.17;;
20743;SDS011;56303;52.160;-0.428;2023-05-07T06:32:11;23.93;;;17.93;;
20743;SDS011;56303;52.160;-0.428;2023-05-07T06:34:39;25.57;;;19.17;;
20743;SDS011;56303;52.160;-0.428;2023-05-07T06:37:06;25.13;;;19.37;;
20743;SDS011;56303;52.160;-0.428;2023-05-07T06:39:33;25.43;;;19.33;;
20743;SDS011;56303;52.160;-0.428;2023-05-07T06:42:01;21.60;;;17.87;;
20743;SDS011;56303;52.160;-0.428;2023-05-07T06:44:28;25.37;;;19.00;;
20743;SDS011;56303;52.160;-0.428;2023-05-07T06:46:55;24.97;;;18.77;;
20743;SDS011;56303;52.160;-0.428;2023-05-07T06:49:22;24.87;;;18.17;;
20743;SDS011;56303;52.160;-0.428;2023-05-07T06:51:49;20.50;;;18.13;;
20743;SDS011;56303;52.160;-0.428;2023-05-07T06:54:16;23.43;;;19.10;;
20743;SDS011;56303;52.160;-0.428;2023-05-07T06:56:43;20.50;;;17.67;;
20743;SDS011;56303;52.160;-0.428;2023-05-07T06:59:10;24.23;;;21.03;;
20743;SDS011;56303;52.160;-0.428;2023-05-07T07:01:37;22.50;;;19.63;;
20743;SDS011;56303;52.160;-0.428;2023-05-07T07:04:04;23.67;;;21.17;;
20743;SDS011;56303;52.160;-0.428;2023-05-07T07:06:31;21.10;;;18.77;;
20743;SDS011;56303;52.160;-0.428;2023-05-07T07:09:00;23.43;;;19.93;;
20743;SDS011;56303;52.160;-0.428;2023-05-07T07:11:26;19.90;;;17.83;;
20743;SDS011;56303;52.160;-0.428;2023-05-07T07:13:53;18.47;;;16.43;;
20743;SDS011;56303;52.160;-0.428;2023-05-07T07:16:21;20.00;;;16.83;;
20743;SDS011;56303;52.160;-0.428;2023-05-07T07:18:48;19.73;;;17.73;;
20743;SDS011;56303;52.160;-0.428;2023-05-07T07:21:15;19.73;;;16.67;;
20743;SDS011;56303;52.160;-0.428;2023-05-07T07:23:42;16.40;;;14.73;;
20743;SDS011;56303;52.160;-0.428;2023-05-07T07:26:09;15.57;;;13.97;;
20743;SDS011;56303;52.160;-0.428;2023-05-07T07:28:41;16.97;;;15.27;;
20743;SDS011;56303;52.160;-0.428;2023-05-07T07:31:12;16.17;;;14.67;;
20743;SDS011;56303;52.160;-0.428;2023-05-07T07:33:40;17.63;;;15.90;;
20743;SDS011;56303;52.160;-0.428;2023-05-07T07:36:07;14.70;;;13.30;;
20743;SDS011;56303;52.160;-0.428;2023-05-07T07:38:34;14.97;;;13.47;;
20743;SDS011;56303;52.160;-0.428;2023-05-07T07:41:01;15.70;;;14.20;;
20743;SDS011;56303;52.160;-0.428;2023-05-07T07:43:28;14.67;;;13.27;;
20743;SDS011;56303;52.160;-0.428;2023-05-07T07:45:55;16.47;;;14.87;;
20743;SDS011;56303;52.160;-0.428;2023-05-07T07:48:22;13.50;;;12.03;;
20743;SDS011;56303;52.160;-0.428;2023-05-07T07:50:49;14.47;;;12.37;;
20743;SDS011;56303;52.160;-0.428;2023-05-07T07:53:18;13.43;;;12.03;;
20743;SDS011;56303;52.160;-0.428;2023-05-07T07:55:45;14.40;;;13.00;;
20743;SDS011;56303;52.160;-0.428;2023-05-07T07:58:12;15.13;;;13.60;;
20743;SDS011;56303;52.160;-0.428;2023-05-07T08:00:39;15.33;;;13.93;;
20743;SDS011;56303;52.160;-0.428;2023-05-07T08:03:08;14.57;;;13.20;;
20743;SDS011;56303;52.160;-0.428;2023-05-07T08:05:37;16.83;;;14.57;;
20743;SDS011;56303;52.160;-0.428;2023-05-07T08:08:04;17.63;;;15.87;;
20743;SDS011;56303;52.160;-0.428;2023-05-07T08:10:32;17.83;;;16.10;;
20743;SDS011;56303;52.160;-0.428;2023-05-07T08:13:01;17.57;;;15.87;;
20743;SDS011;56303;52.160;-0.428;2023-05-07T08:15:30;16.83;;;15.03;;
20743;SDS011;56303;52.160;-0.428;2023-05-07T08:17:57;19.77;;;17.67;;
20743;SDS011;56303;52.160;-0.428;2023-05-07T08:20:26;17.97;;;16.13;;
20743;SDS011;56303;52.160;-0.428;2023-05-07T08:22:54;17.90;;;16.07;;
20743;SDS011;56303;52.160;-0.428;2023-05-07T08:25:21;19.20;;;17.20;;
20743;SDS011;56303;52.160;-0.428;2023-05-07T08:27:48;18.40;;;16.50;;
20743;SDS011;56303;52.160;-0.428;2023-05-07T08:30:15;18.27;;;16.47;;
20743;SDS011;56303;52.160;-0.428;2023-05-07T08:32:42;16.73;;;15.03;;
20743;SDS011;56303;52.160;-0.428;2023-05-07T08:35:08;15.90;;;14.20;;
20743;SDS011;56303;52.160;-0.428;2023-05-07T08:37:36;14.53;;;13.13;;
20743;SDS011;56303;52.160;-0.428;2023-05-07T08:40:02;14.17;;;12.70;;
20743;SDS011;56303;52.160;-0.428;2023-05-07T08:42:35;15.00;;;13.50;;
20743;SDS011;56303;52.160;-0.428;2023-05-07T08:45:08;12.70;;;11.37;;
20743;SDS011;56303;52.160;-0.428;2023-05-07T08:47:58;13.67;;;12.30;;
20743;SDS011;56303;52.160;-0.428;2023-05-07T08:50:25;16.67;;;14.97;;
20743;SDS011;56303;52.160;-0.428;2023-05-07T08:52:51;17.60;;;15.70;;
20743;SDS011;56303;52.160;-0.428;2023-05-07T08:55:18;18.00;;;16.20;;
20743;SDS011;56303;52.160;-0.428;2023-05-07T08:57:47;18.20;;;16.30;;
20743;SDS011;56303;52.160;-0.428;2023-05-07T09:00:14;16.43;;;14.73;;
20743;SDS011;56303;52.160;-0.428;2023-05-07T09:02:41;13.97;;;12.57;;
20743;SDS011;56303;52.160;-0.428;2023-05-07T09:05:08;13.37;;;11.20;;
20743;SDS011;56303;52.160;-0.428;2023-05-07T09:07:36;13.27;;;11.97;;
20743;SDS011;56303;52.160;-0.428;2023-05-07T09:10:03;15.17;;;13.67;;
20743;SDS011;56303;52.160;-0.428;2023-05-07T09:12:31;13.03;;;11.63;;
20743;SDS011;56303;52.160;-0.428;2023-05-07T09:14:58;14.13;;;12.80;;
20743;SDS011;56303;52.160;-0.428;2023-05-07T09:17:26;13.47;;;12.17;;
20743;SDS011;56303;52.160;-0.428;2023-05-07T09:19:53;13.27;;;11.87;;
20743;SDS011;56303;52.160;-0.428;2023-05-07T09:22:20;13.43;;;12.13;;
20743;SDS011;56303;52.160;-0.428;2023-05-07T09:24:48;12.53;;;11.30;;
20743;SDS011;56303;52.160;-0.428;2023-05-07T09:27:16;9.23;;;8.33;;
20743;SDS011;56303;52.160;-0.428;2023-05-07T09:29:44;10.93;;;9.83;;
20743;SDS011;56303;52.160;-0.428;2023-05-07T09:32:11;10.30;;;9.27;;
20743;SDS011;56303;52.160;-0.428;2023-05-07T09:34:38;10.67;;;9.47;;
20743;SDS011;56303;52.160;-0.428;2023-05-07T09:37:06;13.17;;;11.93;;
20743;SDS011;56303;52.160;-0.428;2023-05-07T09:39:46;11.57;;;10.37;;
20743;SDS011;56303;52.160;-0.428;2023-05-07T09:42:15;9.87;;;8.87;;
20743;SDS011;56303;52.160;-0.428;2023-05-07T09:44:45;10.43;;;9.43;;
20743;SDS011;56303;52.160;-0.428;2023-05-07T09:47:14;9.50;;;8.57;;
20743;SDS011;56303;52.160;-0.428;2023-05-07T09:49:48;11.17;;;9.83;;
20743;SDS011;56303;52.160;-0.428;2023-05-07T09:52:18;11.37;;;10.27;;
20743;SDS011;56303;52.160;-0.428;2023-05-07T09:54:54;12.47;;;11.27;;
20743;SDS011;56303;52.160;-0.428;2023-05-07T09:57:23;12.73;;;11.53;;
20743;SDS011;56303;52.160;-0.428;2023-05-07T09:59:51;11.73;;;10.60;;
20743;SDS011;56303;52.160;-0.428;2023-05-07T10:02:19;12.00;;;10.80;;
20743;SDS011;56303;52.160;-0.428;2023-05-07T10:04:47;10.40;;;9.37;;
20743;SDS011;56303;52.160;-0.428;2023-05-07T10:07:15;9.00;;;8.10;;
20743;SDS011;56303;52.160;-0.428;2023-05-07T10:09:43;10.23;;;9.23;;
20743;SDS011;56303;52.160;-0.428;2023-05-07T10:12:14;9.20;;;8.30;;
20743;SDS011;56303;52.160;-0.428;2023-05-07T10:14:42;9.97;;;8.97;;
20743;SDS011;56303;52.160;-0.428;2023-05-07T10:17:10;9.33;;;8.33;;
20743;SDS011;56303;52.160;-0.428;2023-05-07T10:19:38;7.93;;;7.13;;
20743;SDS011;56303;52.160;-0.428;2023-05-07T10:22:06;7.83;;;7.10;;
20743;SDS011;56303;52.160;-0.428;2023-05-07T10:24:35;7.33;;;6.63;;
20743;SDS011;56303;52.160;-0.428;2023-05-07T10:27:10;6.07;;;5.47;;
20743;SDS011;56303;52.160;-0.428;2023-05-07T10:32:40;5.80;;;5.30;;
20743;SDS011;56303;52.160;-0.428;2023-05-07T10:35:26;5.70;;;4.87;;
20743;SDS011;56303;52.160;-0.428;2023-05-07T10:37:58;6.47;;;5.87;;
20743;SDS011;56303;52.160;-0.428;2023-05-07T10:40:25;7.10;;;6.40;;
20743;SDS011;56303;52.160;-0.428;2023-05-07T10:45:36;7.60;;;6.77;;
20743;SDS011;56303;52.160;-0.428;2023-05-07T10:48:10;7.13;;;5.97;;
20743;SDS011;56303;52.160;-0.428;2023-05-07T10:51:17;8.17;;;6.37;;
20743;SDS011;56303;52.160;-0.428;2023-05-07T10:53:45;6.67;;;6.03;;
20743;SDS011;56303;52.160;-0.428;2023-05-07T10:58:46;6.57;;;5.53;;
20743;SDS011;56303;52.160;-0.428;2023-05-07T11:01:13;7.03;;;5.80;;
20743;SDS011;56303;52.160;-0.428;2023-05-07T11:06:40;8.87;;;7.97;;
20743;SDS011;56303;52.160;-0.428;2023-05-07T11:09:07;7.53;;;6.73;;
20743;SDS011;56303;52.160;-0.428;2023-05-07T11:11:44;9.23;;;6.70;;
20743;SDS011;56303;52.160;-0.428;2023-05-07T11:14:14;8.37;;;7.57;;
20743;SDS011;56303;52.160;-0.428;2023-05-07T11:17:03;8.13;;;7.33;;
20743;SDS011;56303;52.160;-0.428;2023-05-07T11:25:01;9.37;;;8.47;;
20743;SDS011;56303;52.160;-0.428;2023-05-07T11:27:29;10.67;;;9.57;;
20743;SDS011;56303;52.160;-0.428;2023-05-07T11:29:56;11.30;;;10.13;;
20743;SDS011;56303;52.160;-0.428;2023-05-07T11:32:27;9.23;;;8.40;;
20743;SDS011;56303;52.160;-0.428;2023-05-07T11:34:57;11.47;;;10.37;;
20743;SDS011;56303;52.160;-0.428;2023-05-07T11:37:26;10.67;;;9.67;;
20743;SDS011;56303;52.160;-0.428;2023-05-07T11:40:03;10.63;;;9.63;;
20743;SDS011;56303;52.160;-0.428;2023-05-07T11:42:33;11.17;;;10.07;;
20743;SDS011;56303;52.160;-0.428;2023-05-07T11:45:05;11.13;;;9.97;;
20743;SDS011;56303;52.160;-0.428;2023-05-07T11:47:33;12.33;;;11.03;;
20743;SDS011;56303;52.160;-0.428;2023-05-07T11:50:04;11.47;;;10.37;;
20743;SDS011;56303;52.160;-0.428;2023-05-07T11:52:34;10.93;;;9.93;;
20743;SDS011;56303;52.160;-0.428;2023-05-07T11:55:02;11.10;;;10.00;;
20743;SDS011;56303;52.160;-0.428;2023-05-07T11:57:32;11.17;;;10.07;;
20743;SDS011;56303;52.160;-0.428;2023-05-07T12:00:00;10.73;;;9.33;;
20743;SDS011;56303;52.160;-0.428;2023-05-07T12:02:31;9.80;;;8.83;;
20743;SDS011;56303;52.160;-0.428;2023-05-07T12:04:59;9.47;;;8.50;;
20743;SDS011;56303;52.160;-0.428;2023-05-07T12:07:27;10.70;;;9.43;;
20743;SDS011;56303;52.160;-0.428;2023-05-07T12:09:53;11.43;;;10.23;;
20743;SDS011;56303;52.160;-0.428;2023-05-07T12:12:20;11.10;;;9.50;;
20743;SDS011;56303;52.160;-0.428;2023-05-07T12:14:47;10.13;;;9.13;;
20743;SDS011;56303;52.160;-0.428;2023-05-07T12:17:14;9.33;;;8.43;;
20743;SDS011;56303;52.160;-0.428;2023-05-07T12:19:44;9.80;;;8.17;;
20743;SDS011;56303;52.160;-0.428;2023-05-07T12:22:12;8.70;;;7.90;;
20743;SDS011;56303;52.160;-0.428;2023-05-07T12:24:49;9.20;;;7.67;;
20743;SDS011;56303;52.160;-0.428;2023-05-07T12:27:27;10.23;;;9.23;;
20743;SDS011;56303;52.160;-0.428;2023-05-07T12:29:53;9.15;;;8.13;;
20743;SDS011;56303;52.160;-0.428;2023-05-07T12:32:21;9.50;;;8.57;;
20743;SDS011;56303;52.160;-0.428;2023-05-07T12:34:51;9.23;;;7.55;;
20743;SDS011;56303;52.160;-0.428;2023-05-07T12:37:24;7.80;;;7.00;;
20743;SDS011;56303;52.160;-0.428;2023-05-07T12:40:15;8.50;;;7.40;;
20743;SDS011;56303;52.160;-0.428;2023-05-07T12:42:41;7.73;;;6.60;;
20743;SDS011;56303;52.160;-0.428;2023-05-07T12:45:15;7.90;;;6.33;;
20743;SDS011;56303;52.160;-0.428;2023-05-07T12:47:43;7.97;;;5.97;;
20743;SDS011;56303;52.160;-0.428;2023-05-07T12:50:14;8.90;;;6.53;;
20743;SDS011;56303;52.160;-0.428;2023-05-07T12:52:43;7.23;;;6.50;;
20743;SDS011;56303;52.160;-0.428;2023-05-07T12:55:12;6.67;;;5.97;;
20743;SDS011;56303;52.160;-0.428;2023-05-07T12:57:42;6.93;;;6.07;;
20743;SDS011;56303;52.160;-0.428;2023-05-07T13:00:10;7.00;;;6.30;;
20743;SDS011;56303;52.160;-0.428;2023-05-07T13:02:38;8.30;;;7.40;;
20743;SDS011;56303;52.160;-0.428;2023-05-07T13:05:06;7.93;;;6.83;;
20743;SDS011;56303;52.160;-0.428;2023-05-07T13:07:34;7.35;;;6.22;;
20743;SDS011;56303;52.160;-0.428;2023-05-07T13:10:03;7.28;;;6.50;;
20743;SDS011;56303;52.160;-0.428;2023-05-07T13:12:30;7.25;;;6.50;;
20743;SDS011;56303;52.160;-0.428;2023-05-07T13:14:57;6.65;;;5.80;;
20743;SDS011;56303;52.160;-0.428;2023-05-07T13:17:25;6.10;;;5.35;;
20743;SDS011;56303;52.160;-0.428;2023-05-07T13:19:52;6.80;;;6.07;;
20743;SDS011;56303;52.160;-0.428;2023-05-07T13:22:19;7.50;;;5.78;;
20743;SDS011;56303;52.160;-0.428;2023-05-07T13:24:46;7.93;;;6.40;;
20743;SDS011;56303;52.160;-0.428;2023-05-07T13:27:13;7.40;;;5.87;;
20743;SDS011;56303;52.160;-0.428;2023-05-07T13:29:40;7.45;;;5.75;;
20743;SDS011;56303;52.160;-0.428;2023-05-07T13:32:06;7.80;;;6.45;;
20743;SDS011;56303;52.160;-0.428;2023-05-07T13:34:34;6.75;;;5.30;;
20743;SDS011;56303;52.160;-0.428;2023-05-07T13:37:00;7.87;;;5.80;;
20743;SDS011;56303;52.160;-0.428;2023-05-07T13:39:27;6.73;;;5.40;;
20743;SDS011;56303;52.160;-0.428;2023-05-07T13:41:54;8.47;;;5.93;;
20743;SDS011;56303;52.160;-0.428;2023-05-07T13:44:21;6.73;;;5.23;;
20743;SDS011;56303;52.160;-0.428;2023-05-07T13:46:48;6.17;;;5.40;;
20743;SDS011;56303;52.160;-0.428;2023-05-07T13:49:14;6.87;;;4.63;;
20743;SDS011;56303;52.160;-0.428;2023-05-07T13:51:41;7.87;;;5.97;;
20743;SDS011;56303;52.160;-0.428;2023-05-07T13:54:08;8.23;;;6.50;;
20743;SDS011;56303;52.160;-0.428;2023-05-07T13:56:35;6.60;;;5.63;;
20743;SDS011;56303;52.160;-0.428;2023-05-07T13:59:02;7.63;;;5.60;;
20743;SDS011;56303;52.160;-0.428;2023-05-07T14:01:30;6.67;;;4.93;;
20743;SDS011;56303;52.160;-0.428;2023-05-07T14:03:57;7.50;;;5.63;;
20743;SDS011;56303;52.160;-0.428;2023-05-07T14:06:26;7.77;;;5.67;;
20743;SDS011;56303;52.160;-0.428;2023-05-07T14:08:52;6.03;;;4.60;;
20743;SDS011;56303;52.160;-0.428;2023-05-07T14:11:19;8.60;;;5.13;;
20743;SDS011;56303;52.160;-0.428;2023-05-07T14:13:47;6.33;;;4.77;;
20743;SDS011;56303;52.160;-0.428;2023-05-07T14:16:14;5.90;;;5.07;;
20743;SDS011;56303;52.160;-0.428;2023-05-07T14:18:41;5.15;;;4.63;;
20743;SDS011;56303;52.160;-0.428;2023-05-07T14:21:08;7.88;;;4.13;;
20743;SDS011;56303;52.160;-0.428;2023-05-07T14:23:36;4.25;;;3.35;;
20743;SDS011;56303;52.160;-0.428;2023-05-07T14:26:02;5.93;;;3.70;;
20743;SDS011;56303;52.160;-0.428;2023-05-07T14:28:29;3.58;;;3.10;;
20743;SDS011;56303;52.160;-0.428;2023-05-07T14:30:57;4.70;;;3.30;;
20743;SDS011;56303;52.160;-0.428;2023-05-07T14:33:24;6.78;;;4.45;;
20743;SDS011;56303;52.160;-0.428;2023-05-07T14:35:51;4.70;;;3.28;;
20743;SDS011;56303;52.160;-0.428;2023-05-07T14:38:18;4.95;;;3.20;;